createdAt,value
2022-08-31T00:00:12.768Z,18.90
2022-08-31T00:02:58.521Z,18.90
2022-08-31T00:05:25.737Z,18.80
2022-08-31T00:07:52.783Z,18.80
2022-08-31T00:10:32.532Z,18.80
2022-08-31T00:13:01.284Z,18.80
2022-08-31T00:15:30.469Z,19.00
2022-08-31T00:17:57.410Z,18.60
2022-08-31T00:20:32.574Z,18.50
2022-08-31T00:23:06.191Z,18.40
2022-08-31T00:25:34.244Z,18.40
2022-08-31T00:28:01.582Z,18.90
2022-08-31T00:30:28.370Z,18.40
2022-08-31T00:32:58.264Z,18.40
2022-08-31T00:35:26.691Z,18.40
2022-08-31T00:37:53.548Z,18.40
2022-08-31T00:40:20.921Z,18.40
2022-08-31T00:42:47.716Z,18.40
2022-08-31T00:45:15.083Z,18.70
2022-08-31T00:47:41.855Z,18.40
2022-08-31T00:50:12.730Z,18.40
2022-08-31T00:52:42.719Z,18.40
2022-08-31T00:55:16.995Z,18.40
2022-08-31T00:57:47.838Z,18.40
2022-08-31T01:00:20.028Z,18.40
2022-08-31T01:02:47.357Z,18.40
2022-08-31T01:05:15.798Z,18.50
2022-08-31T01:07:45.172Z,18.40
2022-08-31T01:10:11.945Z,18.30
2022-08-31T01:12:39.037Z,18.40
2022-08-31T01:15:08.513Z,18.30
2022-08-31T01:17:36.625Z,18.20
2022-08-31T01:20:26.552Z,18.20
2022-08-31T01:23:02.172Z,18.20
2022-08-31T01:25:33.670Z,18.10
2022-08-31T01:28:04.408Z,18.20
2022-08-31T01:30:31.297Z,18.20
2022-08-31T01:32:58.120Z,18.20
2022-08-31T01:35:25.362Z,18.40
2022-08-31T01:37:53.764Z,18.10
2022-08-31T01:40:20.744Z,18.30
2022-08-31T01:42:47.508Z,18.20
2022-08-31T01:45:14.244Z,18.30
2022-08-31T01:47:41.586Z,18.30
2022-08-31T01:50:09.063Z,18.40
2022-08-31T01:52:38.312Z,18.40
2022-08-31T01:55:07.599Z,18.40
2022-08-31T01:57:34.749Z,18.40
2022-08-31T02:00:08.018Z,18.30
2022-08-31T02:02:35.209Z,18.20
2022-08-31T02:05:02.077Z,18.10
2022-08-31T02:07:28.873Z,17.90
2022-08-31T02:09:55.617Z,17.90
2022-08-31T02:12:22.537Z,17.90
2022-08-31T02:14:49.256Z,18.00
2022-08-31T02:17:16.263Z,18.30
2022-08-31T02:19:43.277Z,17.90
2022-08-31T02:22:10.037Z,18.00
2022-08-31T02:24:36.968Z,18.00
2022-08-31T02:27:03.857Z,17.80
2022-08-31T02:29:30.592Z,17.80
2022-08-31T02:31:58.644Z,17.70
2022-08-31T02:34:25.515Z,17.70
2022-08-31T02:36:52.431Z,17.50
2022-08-31T02:39:19.175Z,17.40
2022-08-31T02:41:46.188Z,17.40
2022-08-31T02:44:13.020Z,17.40
2022-08-31T02:46:39.857Z,17.70
2022-08-31T02:49:06.678Z,17.60
2022-08-31T02:51:33.374Z,17.80
2022-08-31T02:54:00.089Z,17.50
2022-08-31T02:56:26.881Z,17.40
2022-08-31T02:58:55.249Z,17.30
2022-08-31T03:01:26.544Z,17.40
2022-08-31T03:03:53.487Z,17.50
2022-08-31T03:06:20.781Z,17.60
2022-08-31T03:08:47.729Z,17.40
2022-08-31T03:11:17.434Z,17.50
2022-08-31T03:13:44.463Z,17.30
2022-08-31T03:16:14.510Z,17.40
2022-08-31T03:18:41.857Z,18.00
2022-08-31T03:21:08.617Z,17.20
2022-08-31T03:23:35.929Z,17.30
2022-08-31T03:26:05.496Z,17.30
2022-08-31T03:28:34.327Z,17.50
2022-08-31T03:31:02.499Z,17.60
2022-08-31T03:33:29.232Z,17.50
2022-08-31T03:35:56.057Z,17.50
2022-08-31T03:38:22.789Z,17.60
2022-08-31T03:40:51.021Z,17.80
2022-08-31T03:43:17.931Z,17.50
2022-08-31T03:45:44.837Z,17.50
2022-08-31T03:48:12.749Z,17.40
2022-08-31T03:50:41.316Z,17.80
2022-08-31T03:53:08.747Z,17.50
2022-08-31T03:55:39.381Z,17.60
2022-08-31T03:58:07.468Z,17.40
2022-08-31T04:00:35.105Z,17.90
2022-08-31T04:03:02.437Z,17.50
2022-08-31T04:05:31.687Z,17.60
2022-08-31T04:07:58.895Z,18.00
2022-08-31T04:10:25.952Z,17.50
2022-08-31T04:12:52.839Z,17.90
2022-08-31T04:15:20.753Z,18.00
2022-08-31T04:17:47.504Z,17.50
2022-08-31T04:20:14.387Z,17.50
2022-08-31T04:22:41.303Z,17.50
2022-08-31T04:25:10.404Z,17.50
2022-08-31T04:27:40.529Z,17.50
2022-08-31T04:30:09.207Z,18.00
2022-08-31T04:32:36.324Z,17.60
2022-08-31T04:35:04.313Z,17.60
2022-08-31T04:37:31.509Z,17.60
2022-08-31T04:39:59.118Z,17.60
2022-08-31T04:42:30.182Z,17.60
2022-08-31T04:44:57.010Z,17.60
2022-08-31T04:47:23.814Z,17.60
2022-08-31T04:49:50.529Z,17.50
2022-08-31T04:52:17.275Z,17.80
2022-08-31T04:54:43.979Z,17.60
2022-08-31T04:57:10.760Z,17.50
2022-08-31T04:59:37.519Z,17.70
2022-08-31T05:02:04.427Z,17.40
2022-08-31T05:04:31.907Z,17.40
2022-08-31T05:06:58.811Z,17.40
2022-08-31T05:09:26.032Z,17.70
2022-08-31T05:11:54.654Z,17.80
2022-08-31T05:14:22.702Z,17.60
2022-08-31T05:16:50.265Z,17.50
2022-08-31T05:19:17.646Z,17.40
2022-08-31T05:21:45.086Z,17.60
2022-08-31T05:24:13.660Z,17.40
2022-08-31T05:26:48.264Z,17.40
2022-08-31T05:29:16.658Z,17.40
2022-08-31T05:31:48.052Z,17.50
2022-08-31T05:34:18.328Z,17.30
2022-08-31T05:36:49.076Z,17.50
2022-08-31T05:39:15.833Z,17.20
2022-08-31T05:41:44.993Z,17.40
2022-08-31T05:44:13.058Z,17.10
2022-08-31T05:46:40.744Z,17.00
2022-08-31T05:49:08.555Z,16.90
2022-08-31T05:51:38.069Z,17.00
2022-08-31T05:54:06.516Z,17.20
2022-08-31T05:56:34.526Z,16.80
2022-08-31T05:59:01.717Z,16.70
2022-08-31T06:01:38.747Z,16.80
2022-08-31T06:04:07.207Z,16.60
2022-08-31T06:06:34.402Z,16.80
2022-08-31T06:09:01.275Z,16.60
2022-08-31T06:11:31.117Z,16.70
2022-08-31T06:14:00.223Z,16.70
2022-08-31T06:16:28.596Z,16.70
2022-08-31T06:18:55.852Z,16.70
2022-08-31T06:21:31.015Z,16.90
2022-08-31T06:23:59.718Z,16.50
2022-08-31T06:26:29.279Z,16.90
2022-08-31T06:28:59.188Z,16.60
2022-08-31T06:31:37.432Z,16.50
2022-08-31T06:34:07.051Z,16.70
2022-08-31T06:36:34.034Z,17.40
2022-08-31T06:39:02.399Z,17.30
2022-08-31T06:41:36.399Z,17.00
2022-08-31T06:44:05.840Z,16.90
2022-08-31T06:46:33.237Z,17.00
2022-08-31T06:49:00.933Z,17.00
2022-08-31T06:51:28.493Z,17.00
2022-08-31T06:53:55.859Z,16.90
2022-08-31T06:56:25.368Z,16.70
2022-08-31T06:58:53.708Z,16.90
2022-08-31T07:01:35.355Z,16.80
2022-08-31T07:04:09.217Z,17.00
2022-08-31T07:06:38.884Z,17.00
2022-08-31T07:09:09.047Z,17.00
2022-08-31T07:11:44.698Z,17.00
2022-08-31T07:14:14.473Z,17.10
2022-08-31T07:16:43.245Z,17.10
2022-08-31T07:19:10.620Z,17.20
2022-08-31T07:21:49.789Z,17.10
2022-08-31T07:24:24.385Z,17.00
2022-08-31T07:27:00.110Z,17.10
2022-08-31T07:29:30.416Z,17.00
2022-08-31T07:31:59.312Z,17.40
2022-08-31T07:34:28.811Z,17.30
2022-08-31T07:37:16.454Z,17.40
2022-08-31T07:40:07.057Z,17.00
2022-08-31T07:42:39.707Z,16.90
2022-08-31T07:45:12.587Z,17.00
2022-08-31T07:47:46.100Z,17.00
2022-08-31T07:50:15.925Z,16.90
2022-08-31T07:52:47.545Z,16.90
2022-08-31T07:55:16.454Z,17.10
2022-08-31T07:57:44.183Z,16.80
2022-08-31T08:00:20.909Z,16.90
2022-08-31T08:02:52.971Z,16.50
2022-08-31T08:05:26.808Z,16.70
2022-08-31T08:07:56.269Z,16.80
2022-08-31T08:10:24.204Z,17.50
2022-08-31T08:12:57.210Z,17.30
2022-08-31T08:15:25.029Z,17.50
2022-08-31T08:17:52.225Z,18.00
2022-08-31T08:20:34.335Z,17.40
2022-08-31T08:23:17.997Z,17.50
2022-08-31T08:25:56.016Z,17.50
2022-08-31T08:28:45.951Z,17.70
2022-08-31T08:31:19.072Z,17.40
2022-08-31T08:33:46.194Z,17.50
2022-08-31T08:36:15.216Z,17.60
2022-08-31T08:38:46.495Z,17.50
2022-08-31T08:41:22.481Z,17.50
2022-08-31T08:44:02.170Z,17.50
2022-08-31T08:46:37.651Z,17.50
2022-08-31T08:49:35.255Z,17.30
2022-08-31T08:52:07.766Z,17.10
2022-08-31T08:54:42.495Z,16.90
2022-08-31T08:57:26.183Z,16.80
2022-08-31T08:59:57.425Z,16.90
2022-08-31T09:02:42.597Z,17.00
2022-08-31T09:05:22.361Z,17.00
2022-08-31T09:08:15.337Z,17.10
2022-08-31T09:11:17.951Z,17.00
2022-08-31T09:14:19.816Z,17.00
2022-08-31T09:17:01.602Z,17.00
2022-08-31T09:19:28.513Z,17.00
2022-08-31T09:21:57.704Z,17.10
2022-08-31T09:24:30.176Z,17.30
2022-08-31T09:27:19.189Z,17.20
2022-08-31T09:29:54.355Z,17.20
2022-08-31T09:32:31.533Z,17.20
2022-08-31T09:35:05.224Z,17.20
2022-08-31T09:37:40.369Z,17.30
2022-08-31T09:40:16.863Z,17.30
2022-08-31T09:43:09.984Z,17.40
2022-08-31T09:45:42.537Z,17.50
2022-08-31T09:48:09.824Z,17.40
2022-08-31T09:50:47.011Z,17.60
2022-08-31T09:53:45.102Z,17.60
2022-08-31T09:56:15.679Z,17.70
2022-08-31T09:58:51.315Z,17.70
2022-08-31T10:01:30.575Z,17.70
2022-08-31T10:04:27.799Z,17.70
2022-08-31T10:07:19.471Z,17.70
2022-08-31T10:09:48.118Z,17.80
2022-08-31T10:12:45.074Z,17.90
2022-08-31T10:15:18.027Z,18.00
2022-08-31T10:18:03.224Z,17.90
2022-08-31T10:20:38.212Z,17.70
2022-08-31T10:23:15.273Z,17.80
2022-08-31T10:25:48.085Z,17.90
2022-08-31T10:28:40.164Z,17.90
2022-08-31T10:31:21.210Z,18.00
2022-08-31T10:34:15.139Z,18.00
2022-08-31T10:36:43.481Z,18.00
2022-08-31T10:39:35.116Z,18.00
2022-08-31T10:42:07.217Z,18.00
2022-08-31T10:44:39.282Z,17.90
2022-08-31T10:47:06.142Z,17.90
2022-08-31T10:49:35.379Z,17.80
2022-08-31T10:52:21.371Z,17.90
2022-08-31T10:55:06.778Z,17.70
2022-08-31T10:57:49.740Z,17.80
2022-08-31T11:00:48.858Z,17.80
2022-08-31T11:03:26.102Z,17.70
2022-08-31T11:06:20.845Z,17.90
2022-08-31T11:09:15.094Z,18.00
2022-08-31T11:11:46.548Z,17.90
2022-08-31T11:14:45.341Z,18.00
2022-08-31T11:17:37.947Z,17.90
2022-08-31T11:20:06.306Z,18.00
2022-08-31T11:22:37.563Z,18.00
2022-08-31T11:25:10.447Z,18.20
2022-08-31T11:27:52.454Z,18.00
2022-08-31T11:30:24.554Z,18.10
2022-08-31T11:33:00.475Z,18.20
2022-08-31T11:36:04.037Z,18.40
2022-08-31T11:38:48.914Z,18.20
2022-08-31T11:41:34.211Z,18.40
2022-08-31T11:44:04.646Z,18.50
2022-08-31T11:46:34.542Z,18.60
2022-08-31T11:49:01.320Z,18.70
2022-08-31T11:51:41.590Z,18.80
2022-08-31T11:54:26.711Z,18.80
2022-08-31T11:56:56.924Z,18.90
2022-08-31T11:59:26.351Z,19.10
2022-08-31T12:01:56.654Z,19.20
2022-08-31T12:04:47.630Z,19.10
2022-08-31T12:07:26.681Z,19.30
2022-08-31T12:10:01.483Z,19.30
2022-08-31T12:12:28.205Z,19.30
2022-08-31T12:15:04.916Z,19.10
2022-08-31T12:17:56.164Z,19.10
2022-08-31T12:20:55.653Z,19.20
2022-08-31T12:23:37.995Z,19.10
2022-08-31T12:26:26.133Z,19.20
2022-08-31T12:28:54.036Z,19.30
2022-08-31T12:31:21.024Z,19.50
2022-08-31T12:33:59.258Z,19.70
2022-08-31T12:36:29.069Z,19.70
2022-08-31T12:39:23.803Z,19.70
2022-08-31T12:41:57.414Z,19.80
2022-08-31T12:44:34.215Z,19.90
2022-08-31T12:47:31.543Z,19.90
2022-08-31T12:50:24.120Z,19.80
2022-08-31T12:53:34.611Z,20.00
2022-08-31T12:56:18.571Z,20.00
2022-08-31T12:59:03.337Z,20.00
2022-08-31T13:01:30.218Z,20.00
2022-08-31T13:04:01.192Z,20.10
2022-08-31T13:06:32.740Z,20.20
2022-08-31T13:09:00.909Z,20.20
2022-08-31T13:11:33.152Z,20.20
2022-08-31T13:14:11.861Z,20.30
2022-08-31T13:16:41.107Z,20.50
2022-08-31T13:19:08.599Z,20.70
2022-08-31T13:21:36.803Z,20.70
2022-08-31T13:24:10.659Z,20.90
2022-08-31T13:26:38.035Z,21.20
2022-08-31T13:29:08.309Z,21.40
2022-08-31T13:31:47.349Z,21.50
2022-08-31T13:34:14.333Z,21.20
2022-08-31T13:37:01.545Z,20.90
2022-08-31T13:39:39.083Z,20.80
2022-08-31T13:42:20.857Z,20.80
2022-08-31T13:44:54.948Z,21.00
2022-08-31T13:47:32.201Z,21.20
2022-08-31T13:50:13.113Z,21.50
2022-08-31T13:53:22.613Z,22.30
2022-08-31T13:55:43.719Z,22.90
2022-08-31T13:58:29.160Z,23.20
2022-08-31T14:01:23.829Z,23.90
2022-08-31T14:03:59.606Z,25.30
2022-08-31T14:06:38.085Z,25.80
2022-08-31T14:09:17.681Z,26.40
2022-08-31T14:11:54.239Z,27.20
2022-08-31T14:14:29.933Z,27.70
2022-08-31T14:17:00.227Z,28.30
2022-08-31T14:19:39.045Z,27.90
2022-08-31T14:22:29.222Z,28.10
2022-08-31T14:24:56.650Z,29.00
2022-08-31T14:27:24.375Z,29.00
2022-08-31T14:29:52.112Z,29.00
2022-08-31T14:32:22.172Z,28.30
2022-08-31T14:34:49.296Z,28.90
2022-08-31T14:37:22.563Z,29.60
2022-08-31T14:39:55.149Z,29.70
2022-08-31T14:42:26.644Z,28.80
2022-08-31T14:44:56.724Z,28.20
2022-08-31T14:47:27.570Z,28.70
2022-08-31T14:49:56.976Z,28.70
2022-08-31T14:52:25.629Z,29.20
2022-08-31T14:54:53.872Z,28.60
2022-08-31T14:57:25.324Z,27.70
2022-08-31T14:59:59.646Z,26.80
2022-08-31T15:02:27.990Z,26.40
2022-08-31T15:05:06.603Z,27.30
2022-08-31T15:07:36.485Z,28.40
2022-08-31T15:10:06.765Z,27.80
2022-08-31T15:12:34.484Z,26.30
2022-08-31T15:15:01.418Z,25.50
2022-08-31T15:17:30.223Z,24.80
2022-08-31T15:19:57.441Z,24.00
2022-08-31T15:22:26.278Z,23.20
2022-08-31T15:24:54.129Z,22.70
2022-08-31T15:27:22.433Z,22.40
2022-08-31T15:29:51.851Z,22.20
2022-08-31T15:32:18.764Z,21.70
2022-08-31T15:34:57.962Z,21.30
2022-08-31T15:37:32.776Z,21.10
2022-08-31T15:40:05.150Z,20.90
2022-08-31T15:42:39.845Z,20.80
2022-08-31T15:45:08.182Z,20.70
2022-08-31T15:47:56.231Z,20.60
2022-08-31T15:50:32.067Z,20.70
2022-08-31T15:53:06.678Z,20.60
2022-08-31T15:55:38.289Z,20.60
2022-08-31T15:58:05.403Z,20.60
2022-08-31T16:00:32.796Z,20.60
2022-08-31T16:03:01.682Z,20.50
2022-08-31T16:05:31.431Z,20.40
2022-08-31T16:07:58.450Z,20.40
2022-08-31T16:10:27.818Z,20.20
2022-08-31T16:12:54.722Z,20.10
2022-08-31T16:15:24.662Z,20.00
2022-08-31T16:17:52.002Z,20.20
2022-08-31T16:20:18.947Z,20.10
2022-08-31T16:22:45.801Z,20.10
2022-08-31T16:25:14.470Z,20.20
2022-08-31T16:27:43.421Z,19.90
2022-08-31T16:30:12.056Z,19.80
2022-08-31T16:32:38.956Z,19.80
2022-08-31T16:35:06.181Z,19.70
2022-08-31T16:37:33.789Z,19.60
2022-08-31T16:40:00.933Z,19.60
2022-08-31T16:42:28.220Z,19.50
2022-08-31T16:44:59.726Z,19.40
2022-08-31T16:47:29.183Z,19.30
2022-08-31T16:49:56.227Z,19.10
2022-08-31T16:52:27.356Z,18.80
2022-08-31T16:54:57.403Z,19.40
2022-08-31T16:57:27.793Z,18.90
2022-08-31T16:59:56.530Z,19.00
2022-08-31T17:02:25.010Z,19.20
2022-08-31T17:04:53.948Z,19.40
2022-08-31T17:07:23.746Z,19.60
2022-08-31T17:09:55.700Z,19.60
2022-08-31T17:12:26.106Z,19.60
2022-08-31T17:14:53.273Z,19.50
2022-08-31T17:17:22.977Z,19.50
2022-08-31T17:19:52.250Z,19.40
2022-08-31T17:22:27.003Z,19.30
2022-08-31T17:24:58.734Z,19.20
2022-08-31T17:27:26.701Z,19.20
2022-08-31T17:29:56.282Z,19.10
2022-08-31T17:32:27.648Z,19.00
2022-08-31T17:34:55.707Z,19.00
2022-08-31T17:37:27.152Z,18.70
2022-08-31T17:39:55.519Z,18.60
2022-08-31T17:42:27.176Z,18.60
2022-08-31T17:44:55.361Z,18.50
2022-08-31T17:47:24.591Z,18.40
2022-08-31T17:49:52.689Z,18.40
2022-08-31T17:52:21.838Z,18.40
2022-08-31T17:54:51.069Z,18.20
2022-08-31T17:57:23.023Z,18.20
2022-08-31T17:59:49.951Z,18.20
2022-08-31T18:02:26.602Z,18.30
2022-08-31T18:04:53.778Z,18.20
2022-08-31T18:07:20.934Z,18.60
2022-08-31T18:09:47.942Z,18.20
2022-08-31T18:12:16.598Z,18.10
2022-08-31T18:14:44.503Z,18.50
2022-08-31T18:17:16.060Z,18.00
2022-08-31T18:19:43.585Z,18.30
2022-08-31T18:22:10.913Z,18.00
2022-08-31T18:24:38.563Z,17.90
2022-08-31T18:27:09.232Z,17.90
2022-08-31T18:29:37.795Z,17.80
2022-08-31T18:32:06.434Z,17.70
2022-08-31T18:34:36.357Z,17.80
2022-08-31T18:37:04.407Z,17.70
2022-08-31T18:39:52.011Z,17.60
2022-08-31T18:42:53.034Z,17.50
2022-08-31T18:45:20.299Z,17.60
2022-08-31T18:50:44.269Z,17.50
2022-08-31T18:53:15.604Z,17.60
2022-08-31T18:55:54.155Z,17.20
2022-08-31T18:58:21.084Z,17.10
2022-08-31T19:00:57.623Z,17.10
2022-08-31T19:03:28.817Z,17.10
2022-08-31T19:05:57.005Z,17.10
2022-08-31T19:08:24.512Z,17.30
2022-08-31T19:10:52.755Z,17.20
2022-08-31T19:13:20.593Z,17.20
2022-08-31T19:15:47.999Z,17.10
2022-08-31T19:18:15.524Z,17.30
2022-08-31T19:20:43.322Z,17.30
2022-08-31T19:23:10.197Z,17.40
2022-08-31T19:25:45.323Z,17.10
2022-08-31T19:28:12.568Z,17.00
2022-08-31T19:30:39.927Z,17.50
2022-08-31T19:33:09.744Z,17.10
2022-08-31T19:35:38.507Z,17.00
2022-08-31T19:38:06.158Z,17.10
2022-08-31T19:40:40.002Z,17.00
2022-08-31T19:45:54.569Z,16.90
2022-08-31T19:48:23.729Z,16.80
2022-08-31T19:50:52.112Z,16.70
2022-08-31T19:53:21.148Z,16.60
2022-08-31T19:55:51.588Z,17.00
2022-08-31T19:58:26.468Z,16.70
2022-08-31T20:01:00.625Z,16.60
2022-08-31T20:03:28.340Z,16.60
2022-08-31T20:05:57.094Z,16.60
2022-08-31T20:08:23.905Z,16.70
2022-08-31T20:10:50.712Z,16.80
2022-08-31T20:13:21.782Z,16.60
2022-08-31T20:15:49.039Z,16.50
2022-08-31T20:18:16.001Z,16.70
2022-08-31T20:20:45.568Z,16.60
2022-08-31T20:23:17.001Z,16.60
2022-08-31T20:25:46.230Z,16.60
2022-08-31T20:28:13.842Z,16.60
2022-08-31T20:30:43.162Z,16.70
2022-08-31T20:33:11.688Z,16.50
2022-08-31T20:35:47.584Z,16.60
2022-08-31T20:38:17.364Z,16.40
2022-08-31T20:40:47.371Z,16.30
2022-08-31T20:43:15.007Z,16.30
2022-08-31T20:45:42.228Z,16.20
2022-08-31T20:48:28.454Z,16.30
2022-08-31T20:50:55.972Z,16.30
2022-08-31T20:53:42.102Z,16.20
2022-08-31T20:56:14.887Z,16.30
2022-08-31T20:58:45.609Z,16.30
2022-08-31T21:01:13.649Z,16.20
2022-08-31T21:03:40.994Z,16.10
2022-08-31T21:06:11.630Z,16.00
2022-08-31T21:08:40.926Z,16.30
2022-08-31T21:11:15.028Z,16.40
2022-08-31T21:13:42.887Z,16.00
2022-08-31T21:16:09.937Z,15.90
2022-08-31T21:18:37.893Z,16.10
2022-08-31T21:21:08.230Z,15.90
2022-08-31T21:23:36.761Z,15.90
2022-08-31T21:26:04.902Z,15.90
2022-08-31T21:28:31.647Z,16.10
2022-08-31T21:31:16.425Z,15.80
2022-08-31T21:33:46.380Z,16.00
2022-08-31T21:36:15.386Z,16.20
2022-08-31T21:38:43.500Z,15.90
2022-08-31T21:41:12.118Z,15.80
2022-08-31T21:43:39.906Z,15.90
2022-08-31T21:46:15.958Z,15.90
2022-08-31T21:48:44.369Z,16.10
2022-08-31T21:51:18.012Z,16.00
2022-08-31T21:53:47.926Z,16.30
2022-08-31T21:56:15.749Z,16.40
2022-08-31T21:58:42.823Z,16.10
2022-08-31T22:01:13.550Z,16.20
2022-08-31T22:03:40.907Z,16.60
2022-08-31T22:06:09.211Z,16.20
2022-08-31T22:08:37.607Z,16.30
2022-08-31T22:11:17.898Z,16.50
2022-08-31T22:13:47.975Z,16.30
2022-08-31T22:16:20.063Z,16.20
2022-08-31T22:19:02.075Z,16.10
2022-08-31T22:21:34.601Z,16.60
2022-08-31T22:24:05.945Z,16.10
2022-08-31T22:26:36.720Z,16.20
2022-08-31T22:29:06.238Z,15.90
2022-08-31T22:31:36.700Z,15.80
2022-08-31T22:34:05.410Z,16.20
2022-08-31T22:36:32.717Z,16.10
2022-08-31T22:39:05.634Z,16.40
2022-08-31T22:41:33.531Z,16.60
2022-08-31T22:44:00.903Z,16.10
2022-08-31T22:46:28.406Z,16.10
2022-08-31T22:48:55.617Z,15.90
2022-08-31T22:51:22.654Z,15.80
2022-08-31T22:53:51.581Z,15.80
2022-08-31T22:56:27.053Z,16.10
2022-08-31T22:58:56.185Z,16.30
2022-08-31T23:01:24.555Z,16.00
2022-08-31T23:03:52.632Z,16.30
2022-08-31T23:06:20.823Z,16.10
2022-08-31T23:08:49.080Z,16.00
2022-08-31T23:11:19.083Z,16.30
2022-08-31T23:13:57.312Z,15.90
2022-08-31T23:16:37.163Z,16.40
2022-08-31T23:19:12.395Z,15.80
2022-08-31T23:21:53.067Z,16.30
2022-08-31T23:24:46.352Z,15.70
2022-08-31T23:27:15.047Z,15.60
2022-08-31T23:29:47.881Z,15.80
2022-08-31T23:32:18.228Z,16.20
2022-08-31T23:34:46.909Z,15.60
2022-08-31T23:37:14.176Z,15.30
2022-08-31T23:39:49.933Z,15.90
2022-08-31T23:42:16.980Z,15.40
2022-08-31T23:44:46.477Z,15.30
2022-08-31T23:47:20.242Z,15.00
2022-08-31T23:49:51.145Z,15.00
2022-08-31T23:52:21.440Z,14.90
2022-08-31T23:54:50.734Z,15.10
2022-08-31T23:57:32.600Z,15.30
